To NAV CANADA Home Page Login to a new session Search on AWWS site Disclaimer Vers la page française équivalente Tips FAQ What's new on the site To the Forecasts and Observations / NOTAM section To "File a Flight Plan" website Publications and other links Update of the User's profile FIC Telephone Numbers My Weather Data Folder Route Weather Data Regional Weather Data Local Weather Data To the Forecasts and Observations / NOTAM section
Request Generated 08/06/2020 at 19:41:19 UTC . Weather information available at that time is displayed.

METAR/TAF

CALGARY/YYC CALGARY INTL/AB    

METAR CYYC 061900Z 22010KT 170V250 30SM FEW090TCU SCT110 BKN130 BKN210 28/07 A2966 RMK TCU2ACC2ACC1CI1 DIST VIRGA W SLP028 DENSITY A
LT 6200FT=
METAR CYYC 061800Z 26008KT 210V290 30SM FEW095TCU SCT130 SCT160 BKN220 BKN260 28/04 A2968 RMK TCU2ACC1AC1CI1CI1 VIRGA TCU S-W SLP031
DENSITY ALT 6200FT=
METAR CYYC 061700Z 27012KT 230V290 30SM FEW090 FEW120 FEW160 FEW230 SCT260 27/04 A2967 RMK AC1ACC1AC1CC1CC1 AC TR CC TR DIST VIRGA S
-SW SLP027 DENSITY ALT 6200FT=

TAF CYYC 061748Z 0618/0718 26010G20KT P6SM FEW100 SCT240
FM062000 21010G20KT P6SM FEW070 BKN220
FM062100 20010G20KT P6SM BKN080 BKN160 TEMPO 0621/0702 P6SM -SHRA
FM070200 24012KT P6SM FEW100 BKN220
FM070800 30012KT P6SM SCT050 BKN090 TEMPO 0708/0715 P6SM -SHRA
FEW020 OVC050
FM071500 27015G25KT P6SM FEW060
RMK NXT FCST BY 062100Z=
Your time UTC time
Weather data provided by Environment Canada and NAV CANADA